NCAR-RAP Real-Time Weather Data

Output produced by METARs form (17 October 2018  16:51 UTC)
found at http://weather.rap.ucar.edu/surface/
 
RJSC 171000Z 03008KT 9999 FEW040 SCT060 13/08 Q1015
RJSC 170900Z 02010KT 9999 FEW040 13/09 Q1014
RJSC 170800Z 02012KT 9999 FEW040 14/09 Q1013
RJSC 170700Z 35006KT 320V020 9999 FEW040 SCT050 17/09 Q1013
RJSC 170600Z 01007KT 9999 FEW030 SCT050 17/09 Q1012
RJSC 170500Z 03003KT 310V110 9999 FEW020 SCT030 BKN120 17/11 Q1012
RJSC 170400Z VRB01KT 9999 FEW020 SCT030 BKN080 16/11 Q1012
RJSC 170300Z VRB01KT 9999 -SHRA FEW020 SCT030 BKN060 15/11 Q1012
RJSC 170200Z VRB01KT 9999 FEW025 SCT030 BKN080 15/11 Q1013
RJSC 170100Z VRB02KT 9999 FEW025 SCT040 BKN080 15/11 Q1013
RJSC 170000Z VRB02KT 9999 FEW010 SCT040 BKN100 14/10 Q1013
RJSC 162300Z 20003KT 160V240 9999 FEW005 SCT040 BKN060 13/12 Q1013
RJSC 162240Z 18003KT 9999 FEW003 SCT040 BKN050 13/12 Q1012 RMK 1ST003 3CU040 5CU050 A2991
RJSC 161000Z 04006KT 020V090 9999 FEW030 SCT080 BKN/// 15/12 Q1013
RJSC 160900Z 01009KT 9999 FEW030 BKN070 16/13 Q1013
RJSC 160800Z 01014KT 9999 FEW030 BKN070 16/12 Q1013
RJSC 160700Z 36012KT 9999 FEW030 BKN070 17/13 Q1012
RJSC 160600Z 36010KT 9999 FEW050 BKN070 18/13 Q1012
RJSC 160500Z 01005KT 330V050 9999 FEW040 SCT090 BKN/// 18/12 Q1012
RJSC 160400Z VRB02KT 9999 FEW040 SCT090 BKN/// 18/12 Q1013
RJSC 160300Z 30003KT 220V020 9999 FEW010 BKN/// 16/12 Q1014
RJSC 160212Z VRB01KT 8000 FEW003 SCT008 BKN/// 14/12 Q1015 RMK 1ST003 4ST008 A2998
RJSC 160200Z VRB02KT 7000 FEW002 SCT006 BKN007 13/12 Q1015
RJSC 160100Z 19003KT 130V210 6000 FEW002 SCT006 BKN007 12/12 Q1016
RJSC 160000Z VRB02KT 4000 BCFG BR FEW001 SCT005 BKN006 12/11 Q1016
RJSC 152341Z VRB02KT 3500 BCFG BR FEW001 SCT004 BKN005 12/11 Q1017 RMK 1ST001 3ST004 6ST005 A3003
RJSC 152311Z VRB02KT 1500 R01/P2000N BCFG BR FEW001 SCT004 BKN005 11/11 Q1017 RMK 1ST001 4ST004 7ST005 A3004
RJSC 152300Z VRB01KT 0900 R01/P2000N FG FEW001 SCT004 BKN005 11/11 Q1017
RJSC 152240Z VRB02KT 0800 R01/1900U FG FEW001 SCT003 BKN004 11/11 Q1017 RMK 1ST001 4ST003 7ST004 A3004
RJSC 151000Z VRB02KT 9999 FEW030 13/12 Q1017
RJSC 150900Z 02005KT 9999 FEW030 14/12 Q1017
RJSC 150800Z 36003KT 9999 FEW030 15/12 Q1017
RJSC 150700Z 34003KT 9999 FEW030 SCT080 17/12 Q1017
RJSC 150600Z 34003KT 270V020 9999 FEW030 SCT080 BKN/// 18/11 Q1017
RJSC 150500Z 01003KT 310V060 9999 FEW025 SCT060 BKN/// 18/13 Q1017